sensor_id;sensor_type;location;lat;lon;timestamp;P1;durP1;ratioP1;P2;durP2;ratioP2
19679;SDS011;9989;48.962;9.182;2024-02-15T00:00:36;10.50;;;6.27;;
19679;SDS011;9989;48.962;9.182;2024-02-15T00:03:03;9.00;;;5.27;;
19679;SDS011;9989;48.962;9.182;2024-02-15T00:05:31;10.37;;;6.20;;
19679;SDS011;9989;48.962;9.182;2024-02-15T00:07:59;10.97;;;5.97;;
19679;SDS011;9989;48.962;9.182;2024-02-15T00:10:25;9.43;;;5.40;;
19679;SDS011;9989;48.962;9.182;2024-02-15T00:12:50;10.23;;;5.17;;
19679;SDS011;9989;48.962;9.182;2024-02-15T00:15:16;11.37;;;5.77;;
19679;SDS011;9989;48.962;9.182;2024-02-15T00:17:42;11.50;;;5.63;;
19679;SDS011;9989;48.962;9.182;2024-02-15T00:20:07;10.07;;;4.80;;
19679;SDS011;9989;48.962;9.182;2024-02-15T00:22:34;10.47;;;5.27;;
19679;SDS011;9989;48.962;9.182;2024-02-15T00:25:03;10.70;;;5.63;;
19679;SDS011;9989;48.962;9.182;2024-02-15T00:27:30;9.67;;;5.53;;
19679;SDS011;9989;48.962;9.182;2024-02-15T00:29:58;10.53;;;5.63;;
19679;SDS011;9989;48.962;9.182;2024-02-15T00:32:24;10.53;;;5.63;;
19679;SDS011;9989;48.962;9.182;2024-02-15T00:34:50;10.63;;;5.97;;
19679;SDS011;9989;48.962;9.182;2024-02-15T00:37:15;12.47;;;6.33;;
19679;SDS011;9989;48.962;9.182;2024-02-15T00:39:41;14.13;;;7.80;;
19679;SDS011;9989;48.962;9.182;2024-02-15T00:42:08;13.67;;;8.27;;
19679;SDS011;9989;48.962;9.182;2024-02-15T00:44:34;13.17;;;8.20;;
19679;SDS011;9989;48.962;9.182;2024-02-15T00:46:59;14.17;;;8.07;;
19679;SDS011;9989;48.962;9.182;2024-02-15T00:49:25;13.23;;;7.93;;
19679;SDS011;9989;48.962;9.182;2024-02-15T00:51:53;15.10;;;9.37;;
19679;SDS011;9989;48.962;9.182;2024-02-15T00:54:18;14.17;;;7.93;;
19679;SDS011;9989;48.962;9.182;2024-02-15T00:56:44;16.50;;;7.93;;
19679;SDS011;9989;48.962;9.182;2024-02-15T00:59:09;12.67;;;7.60;;
19679;SDS011;9989;48.962;9.182;2024-02-15T01:01:35;13.53;;;7.90;;
19679;SDS011;9989;48.962;9.182;2024-02-15T01:04:04;12.10;;;7.63;;
19679;SDS011;9989;48.962;9.182;2024-02-15T01:06:30;12.90;;;7.43;;
19679;SDS011;9989;48.962;9.182;2024-02-15T01:08:55;12.73;;;7.53;;
19679;SDS011;9989;48.962;9.182;2024-02-15T01:11:22;12.90;;;7.60;;
19679;SDS011;9989;48.962;9.182;2024-02-15T01:13:49;11.17;;;7.20;;
19679;SDS011;9989;48.962;9.182;2024-02-15T01:16:16;11.83;;;7.13;;
19679;SDS011;9989;48.962;9.182;2024-02-15T01:18:41;14.17;;;7.00;;
19679;SDS011;9989;48.962;9.182;2024-02-15T01:21:07;12.73;;;6.50;;
19679;SDS011;9989;48.962;9.182;2024-02-15T01:23:33;11.17;;;6.07;;
19679;SDS011;9989;48.962;9.182;2024-02-15T01:26:01;10.53;;;6.40;;
19679;SDS011;9989;48.962;9.182;2024-02-15T01:28:27;10.63;;;6.07;;
19679;SDS011;9989;48.962;9.182;2024-02-15T01:30:53;10.67;;;5.70;;
19679;SDS011;9989;48.962;9.182;2024-02-15T01:33:19;10.03;;;5.50;;
19679;SDS011;9989;48.962;9.182;2024-02-15T01:35:45;10.43;;;4.83;;
19679;SDS011;9989;48.962;9.182;2024-02-15T01:38:10;11.07;;;5.67;;
19679;SDS011;9989;48.962;9.182;2024-02-15T01:40:36;9.30;;;4.97;;
19679;SDS011;9989;48.962;9.182;2024-02-15T01:43:01;10.77;;;5.93;;
19679;SDS011;9989;48.962;9.182;2024-02-15T01:45:28;10.07;;;5.00;;
19679;SDS011;9989;48.962;9.182;2024-02-15T01:47:54;10.23;;;5.70;;
19679;SDS011;9989;48.962;9.182;2024-02-15T01:50:20;7.80;;;4.10;;
19679;SDS011;9989;48.962;9.182;2024-02-15T01:52:48;8.70;;;4.17;;
19679;SDS011;9989;48.962;9.182;2024-02-15T01:55:16;9.27;;;4.63;;
19679;SDS011;9989;48.962;9.182;2024-02-15T01:57:46;9.07;;;4.83;;
19679;SDS011;9989;48.962;9.182;2024-02-15T02:00:15;9.50;;;4.70;;
19679;SDS011;9989;48.962;9.182;2024-02-15T02:02:43;9.37;;;3.90;;
19679;SDS011;9989;48.962;9.182;2024-02-15T02:05:10;8.73;;;4.87;;
19679;SDS011;9989;48.962;9.182;2024-02-15T02:07:36;8.70;;;4.33;;
19679;SDS011;9989;48.962;9.182;2024-02-15T02:10:02;9.30;;;4.80;;
19679;SDS011;9989;48.962;9.182;2024-02-15T02:12:28;9.83;;;4.80;;
19679;SDS011;9989;48.962;9.182;2024-02-15T02:14:55;8.70;;;4.43;;
19679;SDS011;9989;48.962;9.182;2024-02-15T02:17:20;9.70;;;4.90;;
19679;SDS011;9989;48.962;9.182;2024-02-15T02:19:46;8.40;;;4.37;;
19679;SDS011;9989;48.962;9.182;2024-02-15T02:22:14;9.23;;;4.33;;
19679;SDS011;9989;48.962;9.182;2024-02-15T02:25:02;9.80;;;4.60;;
19679;SDS011;9989;48.962;9.182;2024-02-15T02:27:28;7.90;;;4.33;;
19679;SDS011;9989;48.962;9.182;2024-02-15T02:29:54;9.57;;;5.03;;
19679;SDS011;9989;48.962;9.182;2024-02-15T02:32:20;9.77;;;4.83;;
19679;SDS011;9989;48.962;9.182;2024-02-15T02:34:46;8.20;;;4.23;;
19679;SDS011;9989;48.962;9.182;2024-02-15T02:37:12;8.83;;;5.00;;
19679;SDS011;9989;48.962;9.182;2024-02-15T02:39:38;9.37;;;4.57;;
19679;SDS011;9989;48.962;9.182;2024-02-15T02:42:04;9.73;;;4.63;;
19679;SDS011;9989;48.962;9.182;2024-02-15T02:44:30;8.67;;;4.50;;
19679;SDS011;9989;48.962;9.182;2024-02-15T02:46:56;9.87;;;4.20;;
19679;SDS011;9989;48.962;9.182;2024-02-15T02:49:22;8.40;;;4.43;;
19679;SDS011;9989;48.962;9.182;2024-02-15T02:51:48;9.17;;;4.83;;
19679;SDS011;9989;48.962;9.182;2024-02-15T02:54:13;8.13;;;3.87;;
19679;SDS011;9989;48.962;9.182;2024-02-15T02:56:40;9.73;;;4.87;;
19679;SDS011;9989;48.962;9.182;2024-02-15T02:59:05;8.37;;;4.50;;
19679;SDS011;9989;48.962;9.182;2024-02-15T03:01:33;8.20;;;4.27;;
19679;SDS011;9989;48.962;9.182;2024-02-15T03:03:58;7.53;;;3.87;;
19679;SDS011;9989;48.962;9.182;2024-02-15T03:06:24;8.53;;;4.50;;
19679;SDS011;9989;48.962;9.182;2024-02-15T03:08:52;8.87;;;4.27;;
19679;SDS011;9989;48.962;9.182;2024-02-15T03:11:21;10.50;;;4.77;;
19679;SDS011;9989;48.962;9.182;2024-02-15T03:13:47;8.37;;;4.23;;
19679;SDS011;9989;48.962;9.182;2024-02-15T03:16:13;9.37;;;4.40;;
19679;SDS011;9989;48.962;9.182;2024-02-15T03:18:39;9.27;;;5.00;;
19679;SDS011;9989;48.962;9.182;2024-02-15T03:21:06;12.33;;;5.90;;
19679;SDS011;9989;48.962;9.182;2024-02-15T03:23:33;11.40;;;6.20;;
19679;SDS011;9989;48.962;9.182;2024-02-15T03:26:01;11.40;;;6.83;;
19679;SDS011;9989;48.962;9.182;2024-02-15T03:28:27;10.20;;;6.23;;
19679;SDS011;9989;48.962;9.182;2024-02-15T03:30:52;11.43;;;6.73;;
19679;SDS011;9989;48.962;9.182;2024-02-15T03:33:18;10.53;;;6.03;;
19679;SDS011;9989;48.962;9.182;2024-02-15T03:35:43;12.80;;;6.53;;
19679;SDS011;9989;48.962;9.182;2024-02-15T03:38:09;11.13;;;6.30;;
19679;SDS011;9989;48.962;9.182;2024-02-15T03:40:34;11.80;;;6.90;;
19679;SDS011;9989;48.962;9.182;2024-02-15T03:43:01;13.23;;;7.27;;
19679;SDS011;9989;48.962;9.182;2024-02-15T03:45:31;13.13;;;7.53;;
19679;SDS011;9989;48.962;9.182;2024-02-15T03:47:57;12.17;;;6.70;;
19679;SDS011;9989;48.962;9.182;2024-02-15T03:50:22;11.87;;;6.43;;
19679;SDS011;9989;48.962;9.182;2024-02-15T03:52:48;11.27;;;6.57;;
19679;SDS011;9989;48.962;9.182;2024-02-15T03:55:15;10.47;;;6.00;;
19679;SDS011;9989;48.962;9.182;2024-02-15T03:57:41;10.27;;;4.73;;
19679;SDS011;9989;48.962;9.182;2024-02-15T04:00:08;8.90;;;4.70;;
19679;SDS011;9989;48.962;9.182;2024-02-15T04:02:36;10.47;;;5.60;;
19679;SDS011;9989;48.962;9.182;2024-02-15T04:05:02;9.97;;;4.90;;
19679;SDS011;9989;48.962;9.182;2024-02-15T04:07:30;8.97;;;4.37;;
19679;SDS011;9989;48.962;9.182;2024-02-15T04:09:56;12.10;;;4.97;;
19679;SDS011;9989;48.962;9.182;2024-02-15T04:12:21;9.43;;;4.63;;
19679;SDS011;9989;48.962;9.182;2024-02-15T04:14:47;11.07;;;4.60;;
19679;SDS011;9989;48.962;9.182;2024-02-15T04:17:14;8.00;;;3.20;;
19679;SDS011;9989;48.962;9.182;2024-02-15T04:19:43;10.07;;;3.93;;
19679;SDS011;9989;48.962;9.182;2024-02-15T04:22:10;9.63;;;3.70;;
19679;SDS011;9989;48.962;9.182;2024-02-15T04:24:36;8.00;;;4.10;;
19679;SDS011;9989;48.962;9.182;2024-02-15T04:27:08;7.67;;;3.63;;
19679;SDS011;9989;48.962;9.182;2024-02-15T04:29:36;9.20;;;4.27;;
19679;SDS011;9989;48.962;9.182;2024-02-15T04:32:05;10.90;;;4.63;;
19679;SDS011;9989;48.962;9.182;2024-02-15T04:34:34;8.77;;;4.17;;
19679;SDS011;9989;48.962;9.182;2024-02-15T04:37:00;9.00;;;4.10;;
19679;SDS011;9989;48.962;9.182;2024-02-15T04:39:31;8.97;;;3.97;;
19679;SDS011;9989;48.962;9.182;2024-02-15T04:42:06;8.90;;;4.10;;
19679;SDS011;9989;48.962;9.182;2024-02-15T04:44:36;8.00;;;3.53;;
19679;SDS011;9989;48.962;9.182;2024-02-15T04:47:04;8.83;;;3.67;;
19679;SDS011;9989;48.962;9.182;2024-02-15T04:49:30;7.70;;;3.20;;
19679;SDS011;9989;48.962;9.182;2024-02-15T04:51:56;7.63;;;3.50;;
19679;SDS011;9989;48.962;9.182;2024-02-15T04:54:22;7.60;;;3.70;;
19679;SDS011;9989;48.962;9.182;2024-02-15T04:56:48;8.83;;;3.80;;
19679;SDS011;9989;48.962;9.182;2024-02-15T04:59:17;8.17;;;3.90;;
19679;SDS011;9989;48.962;9.182;2024-02-15T05:01:44;8.97;;;3.87;;
19679;SDS011;9989;48.962;9.182;2024-02-15T05:04:10;8.83;;;3.50;;
19679;SDS011;9989;48.962;9.182;2024-02-15T05:06:36;8.87;;;4.17;;
19679;SDS011;9989;48.962;9.182;2024-02-15T05:09:03;9.53;;;4.33;;
19679;SDS011;9989;48.962;9.182;2024-02-15T05:11:35;9.63;;;4.33;;
19679;SDS011;9989;48.962;9.182;2024-02-15T05:14:06;8.47;;;4.40;;
19679;SDS011;9989;48.962;9.182;2024-02-15T05:16:32;9.40;;;4.63;;
19679;SDS011;9989;48.962;9.182;2024-02-15T05:18:59;8.20;;;4.30;;
19679;SDS011;9989;48.962;9.182;2024-02-15T05:21:24;10.10;;;5.03;;
19679;SDS011;9989;48.962;9.182;2024-02-15T05:23:50;8.57;;;4.23;;
19679;SDS011;9989;48.962;9.182;2024-02-15T05:26:17;9.17;;;4.50;;
19679;SDS011;9989;48.962;9.182;2024-02-15T05:28:48;9.07;;;4.03;;
19679;SDS011;9989;48.962;9.182;2024-02-15T05:31:17;7.80;;;3.87;;
19679;SDS011;9989;48.962;9.182;2024-02-15T05:33:47;7.97;;;3.97;;
19679;SDS011;9989;48.962;9.182;2024-02-15T05:36:13;7.77;;;3.93;;
19679;SDS011;9989;48.962;9.182;2024-02-15T05:38:39;13.00;;;4.20;;
19679;SDS011;9989;48.962;9.182;2024-02-15T05:41:05;9.63;;;4.30;;
19679;SDS011;9989;48.962;9.182;2024-02-15T05:43:32;9.63;;;3.63;;
19679;SDS011;9989;48.962;9.182;2024-02-15T05:46:00;9.03;;;3.83;;
19679;SDS011;9989;48.962;9.182;2024-02-15T05:48:26;7.70;;;3.73;;
19679;SDS011;9989;48.962;9.182;2024-02-15T05:50:53;6.67;;;3.77;;
19679;SDS011;9989;48.962;9.182;2024-02-15T05:53:23;8.10;;;4.00;;
19679;SDS011;9989;48.962;9.182;2024-02-15T05:55:49;8.07;;;4.07;;
19679;SDS011;9989;48.962;9.182;2024-02-15T05:58:15;8.77;;;4.37;;
19679;SDS011;9989;48.962;9.182;2024-02-15T06:00:41;7.93;;;4.30;;
19679;SDS011;9989;48.962;9.182;2024-02-15T06:03:09;9.30;;;5.20;;
19679;SDS011;9989;48.962;9.182;2024-02-15T06:05:36;9.50;;;5.33;;
19679;SDS011;9989;48.962;9.182;2024-02-15T06:08:02;8.90;;;5.53;;
19679;SDS011;9989;48.962;9.182;2024-02-15T06:10:27;9.20;;;4.67;;
19679;SDS011;9989;48.962;9.182;2024-02-15T06:12:54;10.87;;;4.53;;
19679;SDS011;9989;48.962;9.182;2024-02-15T06:15:21;7.00;;;3.57;;
19679;SDS011;9989;48.962;9.182;2024-02-15T06:17:48;9.40;;;4.37;;
19679;SDS011;9989;48.962;9.182;2024-02-15T06:20:14;11.07;;;4.40;;
19679;SDS011;9989;48.962;9.182;2024-02-15T06:22:42;9.30;;;4.10;;
19679;SDS011;9989;48.962;9.182;2024-02-15T06:25:11;8.73;;;3.97;;
19679;SDS011;9989;48.962;9.182;2024-02-15T06:27:38;11.73;;;4.20;;
19679;SDS011;9989;48.962;9.182;2024-02-15T06:30:11;10.50;;;5.10;;
19679;SDS011;9989;48.962;9.182;2024-02-15T06:32:56;8.23;;;4.70;;
19679;SDS011;9989;48.962;9.182;2024-02-15T06:35:41;10.40;;;4.93;;
19679;SDS011;9989;48.962;9.182;2024-02-15T06:38:25;8.57;;;4.27;;
19679;SDS011;9989;48.962;9.182;2024-02-15T06:41:10;10.50;;;4.30;;
19679;SDS011;9989;48.962;9.182;2024-02-15T06:43:35;8.63;;;4.00;;
19679;SDS011;9989;48.962;9.182;2024-02-15T06:46:02;9.93;;;4.00;;
19679;SDS011;9989;48.962;9.182;2024-02-15T06:48:28;8.33;;;4.23;;
19679;SDS011;9989;48.962;9.182;2024-02-15T06:50:53;9.57;;;4.13;;
19679;SDS011;9989;48.962;9.182;2024-02-15T06:53:19;10.00;;;5.20;;
19679;SDS011;9989;48.962;9.182;2024-02-15T06:55:45;9.43;;;4.37;;
19679;SDS011;9989;48.962;9.182;2024-02-15T06:58:14;9.33;;;3.90;;
19679;SDS011;9989;48.962;9.182;2024-02-15T07:00:45;9.73;;;4.23;;
19679;SDS011;9989;48.962;9.182;2024-02-15T07:03:13;8.23;;;4.00;;
19679;SDS011;9989;48.962;9.182;2024-02-15T07:05:38;10.97;;;4.30;;
19679;SDS011;9989;48.962;9.182;2024-02-15T07:08:06;9.23;;;4.40;;
19679;SDS011;9989;48.962;9.182;2024-02-15T07:10:35;10.10;;;4.37;;
19679;SDS011;9989;48.962;9.182;2024-02-15T07:13:03;9.33;;;4.50;;
19679;SDS011;9989;48.962;9.182;2024-02-15T07:15:29;9.97;;;5.10;;
19679;SDS011;9989;48.962;9.182;2024-02-15T07:17:58;8.73;;;4.23;;
19679;SDS011;9989;48.962;9.182;2024-02-15T07:20:24;11.17;;;4.50;;
19679;SDS011;9989;48.962;9.182;2024-02-15T07:22:50;8.83;;;4.20;;
19679;SDS011;9989;48.962;9.182;2024-02-15T07:25:16;10.57;;;4.93;;
19679;SDS011;9989;48.962;9.182;2024-02-15T07:27:43;10.70;;;5.00;;
19679;SDS011;9989;48.962;9.182;2024-02-15T07:30:08;9.97;;;4.47;;
19679;SDS011;9989;48.962;9.182;2024-02-15T07:32:34;8.60;;;4.20;;
19679;SDS011;9989;48.962;9.182;2024-02-15T07:35:00;11.43;;;4.60;;
19679;SDS011;9989;48.962;9.182;2024-02-15T07:37:26;11.33;;;4.80;;
19679;SDS011;9989;48.962;9.182;2024-02-15T07:39:54;8.83;;;4.13;;
19679;SDS011;9989;48.962;9.182;2024-02-15T07:42:19;11.50;;;4.70;;
19679;SDS011;9989;48.962;9.182;2024-02-15T07:44:45;9.30;;;3.90;;
19679;SDS011;9989;48.962;9.182;2024-02-15T07:47:11;9.07;;;4.53;;
19679;SDS011;9989;48.962;9.182;2024-02-15T07:49:36;9.27;;;3.90;;
19679;SDS011;9989;48.962;9.182;2024-02-15T07:52:02;8.37;;;4.20;;
19679;SDS011;9989;48.962;9.182;2024-02-15T07:54:29;9.00;;;4.10;;
19679;SDS011;9989;48.962;9.182;2024-02-15T07:56:55;8.20;;;3.93;;
19679;SDS011;9989;48.962;9.182;2024-02-15T07:59:23;8.73;;;4.10;;
19679;SDS011;9989;48.962;9.182;2024-02-15T08:01:48;10.80;;;4.10;;
19679;SDS011;9989;48.962;9.182;2024-02-15T08:04:18;8.30;;;3.80;;
19679;SDS011;9989;48.962;9.182;2024-02-15T08:06:44;11.03;;;3.73;;
19679;SDS011;9989;48.962;9.182;2024-02-15T08:09:09;10.77;;;3.67;;
19679;SDS011;9989;48.962;9.182;2024-02-15T08:11:43;8.17;;;3.60;;
19679;SDS011;9989;48.962;9.182;2024-02-15T08:14:09;8.23;;;3.77;;
19679;SDS011;9989;48.962;9.182;2024-02-15T08:16:36;6.87;;;3.27;;
19679;SDS011;9989;48.962;9.182;2024-02-15T08:19:06;7.17;;;3.10;;
19679;SDS011;9989;48.962;9.182;2024-02-15T08:21:32;10.10;;;3.37;;
19679;SDS011;9989;48.962;9.182;2024-02-15T08:23:59;8.40;;;3.60;;
19679;SDS011;9989;48.962;9.182;2024-02-15T08:26:30;9.40;;;3.17;;
19679;SDS011;9989;48.962;9.182;2024-02-15T08:29:06;7.53;;;3.03;;
19679;SDS011;9989;48.962;9.182;2024-02-15T08:31:32;9.20;;;3.10;;
19679;SDS011;9989;48.962;9.182;2024-02-15T08:34:01;7.67;;;3.43;;
19679;SDS011;9989;48.962;9.182;2024-02-15T08:36:29;7.37;;;3.73;;
19679;SDS011;9989;48.962;9.182;2024-02-15T08:38:55;9.00;;;3.70;;
19679;SDS011;9989;48.962;9.182;2024-02-15T08:41:21;9.37;;;3.50;;
19679;SDS011;9989;48.962;9.182;2024-02-15T08:43:51;9.77;;;3.20;;
19679;SDS011;9989;48.962;9.182;2024-02-15T08:46:18;8.43;;;3.60;;
19679;SDS011;9989;48.962;9.182;2024-02-15T08:48:44;11.00;;;3.40;;
19679;SDS011;9989;48.962;9.182;2024-02-15T08:51:11;7.60;;;2.87;;
19679;SDS011;9989;48.962;9.182;2024-02-15T08:53:37;6.60;;;2.73;;
19679;SDS011;9989;48.962;9.182;2024-02-15T08:56:03;8.17;;;3.23;;
19679;SDS011;9989;48.962;9.182;2024-02-15T08:58:29;6.80;;;2.90;;
19679;SDS011;9989;48.962;9.182;2024-02-15T09:00:55;6.20;;;2.60;;
19679;SDS011;9989;48.962;9.182;2024-02-15T09:03:22;5.80;;;2.60;;
19679;SDS011;9989;48.962;9.182;2024-02-15T09:05:48;6.27;;;2.37;;
19679;SDS011;9989;48.962;9.182;2024-02-15T09:08:13;9.57;;;2.27;;
19679;SDS011;9989;48.962;9.182;2024-02-15T09:10:40;3.53;;;1.73;;
19679;SDS011;9989;48.962;9.182;2024-02-15T09:13:07;7.70;;;2.47;;
19679;SDS011;9989;48.962;9.182;2024-02-15T09:15:33;4.97;;;1.90;;
19679;SDS011;9989;48.962;9.182;2024-02-15T09:17:59;5.70;;;2.10;;
19679;SDS011;9989;48.962;9.182;2024-02-15T09:20:25;6.27;;;2.17;;
19679;SDS011;9989;48.962;9.182;2024-02-15T09:22:53;4.43;;;1.70;;
19679;SDS011;9989;48.962;9.182;2024-02-15T09:25:20;5.47;;;1.77;;
19679;SDS011;9989;48.962;9.182;2024-02-15T09:27:49;6.20;;;1.90;;
19679;SDS011;9989;48.962;9.182;2024-02-15T09:30:16;5.30;;;1.97;;
19679;SDS011;9989;48.962;9.182;2024-02-15T09:32:42;5.10;;;2.00;;
19679;SDS011;9989;48.962;9.182;2024-02-15T09:35:09;4.83;;;2.10;;
19679;SDS011;9989;48.962;9.182;2024-02-15T09:37:46;6.27;;;1.97;;
19679;SDS011;9989;48.962;9.182;2024-02-15T09:40:16;4.57;;;1.80;;
19679;SDS011;9989;48.962;9.182;2024-02-15T09:42:43;5.37;;;1.80;;
19679;SDS011;9989;48.962;9.182;2024-02-15T09:45:10;5.53;;;2.43;;
19679;SDS011;9989;48.962;9.182;2024-02-15T09:47:43;5.07;;;1.60;;
19679;SDS011;9989;48.962;9.182;2024-02-15T09:50:13;6.33;;;1.80;;
19679;SDS011;9989;48.962;9.182;2024-02-15T09:52:40;4.63;;;1.57;;
19679;SDS011;9989;48.962;9.182;2024-02-15T09:55:16;4.20;;;1.50;;
19679;SDS011;9989;48.962;9.182;2024-02-15T09:57:43;5.47;;;2.10;;
19679;SDS011;9989;48.962;9.182;2024-02-15T10:00:11;4.17;;;1.70;;
19679;SDS011;9989;48.962;9.182;2024-02-15T10:02:42;3.93;;;1.50;;
19679;SDS011;9989;48.962;9.182;2024-02-15T10:05:20;4.97;;;1.60;;
19679;SDS011;9989;48.962;9.182;2024-02-15T10:07:48;4.13;;;1.70;;
19679;SDS011;9989;48.962;9.182;2024-02-15T10:10:14;3.47;;;1.50;;
19679;SDS011;9989;48.962;9.182;2024-02-15T10:12:41;7.50;;;2.00;;
19679;SDS011;9989;48.962;9.182;2024-02-15T10:15:08;4.43;;;1.33;;
19679;SDS011;9989;48.962;9.182;2024-02-15T10:17:34;3.13;;;1.30;;
19679;SDS011;9989;48.962;9.182;2024-02-15T10:20:04;3.80;;;1.60;;
19679;SDS011;9989;48.962;9.182;2024-02-15T10:22:30;4.60;;;1.70;;
19679;SDS011;9989;48.962;9.182;2024-02-15T10:25:12;5.83;;;1.83;;
19679;SDS011;9989;48.962;9.182;2024-02-15T10:27:39;3.90;;;1.80;;
19679;SDS011;9989;48.962;9.182;2024-02-15T10:30:18;3.43;;;1.33;;
19679;SDS011;9989;48.962;9.182;2024-02-15T10:32:44;4.68;;;1.60;;
19679;SDS011;9989;48.962;9.182;2024-02-15T10:35:12;3.50;;;1.52;;
19679;SDS011;9989;48.962;9.182;2024-02-15T10:37:44;7.05;;;1.88;;
19679;SDS011;9989;48.962;9.182;2024-02-15T10:40:11;3.83;;;1.48;;
19679;SDS011;9989;48.962;9.182;2024-02-15T10:42:38;5.10;;;1.30;;
19679;SDS011;9989;48.962;9.182;2024-02-15T10:45:07;4.72;;;1.10;;
19679;SDS011;9989;48.962;9.182;2024-02-15T10:47:35;4.28;;;1.38;;
19679;SDS011;9989;48.962;9.182;2024-02-15T10:50:03;3.23;;;1.23;;
19679;SDS011;9989;48.962;9.182;2024-02-15T10:52:31;4.27;;;1.47;;
19679;SDS011;9989;48.962;9.182;2024-02-15T10:55:04;3.87;;;1.30;;
19679;SDS011;9989;48.962;9.182;2024-02-15T10:57:34;3.43;;;1.20;;
19679;SDS011;9989;48.962;9.182;2024-02-15T11:00:03;4.00;;;1.30;;
19679;SDS011;9989;48.962;9.182;2024-02-15T11:02:48;4.83;;;1.60;;
19679;SDS011;9989;48.962;9.182;2024-02-15T11:05:32;3.53;;;1.13;;
19679;SDS011;9989;48.962;9.182;2024-02-15T11:08:00;2.77;;;0.80;;
19679;SDS011;9989;48.962;9.182;2024-02-15T11:10:27;2.73;;;0.93;;
19679;SDS011;9989;48.962;9.182;2024-02-15T11:12:53;3.70;;;1.20;;
19679;SDS011;9989;48.962;9.182;2024-02-15T11:19:00;3.87;;;1.27;;
19679;SDS011;9989;48.962;9.182;2024-02-15T11:21:14;1.70;;;0.83;;
19679;SDS011;9989;48.962;9.182;2024-02-15T11:23:42;3.53;;;1.23;;
19679;SDS011;9989;48.962;9.182;2024-02-15T11:32:40;4.40;;;1.10;;
19679;SDS011;9989;48.962;9.182;2024-02-15T11:35:13;4.00;;;1.40;;
19679;SDS011;9989;48.962;9.182;2024-02-15T11:40:16;3.07;;;1.20;;
19679;SDS011;9989;48.962;9.182;2024-02-15T11:42:44;2.90;;;1.37;;
19679;SDS011;9989;48.962;9.182;2024-02-15T11:45:10;3.97;;;1.20;;
19679;SDS011;9989;48.962;9.182;2024-02-15T11:47:37;4.30;;;1.20;;
19679;SDS011;9989;48.962;9.182;2024-02-15T11:50:14;2.83;;;1.10;;
19679;SDS011;9989;48.962;9.182;2024-02-15T11:52:43;4.20;;;1.43;;
19679;SDS011;9989;48.962;9.182;2024-02-15T11:55:11;3.73;;;1.40;;
19679;SDS011;9989;48.962;9.182;2024-02-15T11:57:41;3.27;;;0.87;;
19679;SDS011;9989;48.962;9.182;2024-02-15T12:00:19;3.27;;;1.10;;
19679;SDS011;9989;48.962;9.182;2024-02-15T12:03:03;3.60;;;1.23;;
19679;SDS011;9989;48.962;9.182;2024-02-15T12:05:49;5.27;;;1.30;;
19679;SDS011;9989;48.962;9.182;2024-02-15T12:08:33;3.73;;;1.20;;
19679;SDS011;9989;48.962;9.182;2024-02-15T12:11:18;2.73;;;1.10;;
19679;SDS011;9989;48.962;9.182;2024-02-15T12:14:02;3.90;;;1.00;;
19679;SDS011;9989;48.962;9.182;2024-02-15T12:16:46;2.97;;;1.03;;
19679;SDS011;9989;48.962;9.182;2024-02-15T12:19:30;2.80;;;1.10;;
19679;SDS011;9989;48.962;9.182;2024-02-15T12:21:56;4.17;;;1.50;;
19679;SDS011;9989;48.962;9.182;2024-02-15T12:24:23;5.07;;;1.70;;
19679;SDS011;9989;48.962;9.182;2024-02-15T12:26:52;4.17;;;1.30;;
19679;SDS011;9989;48.962;9.182;2024-02-15T12:29:26;4.50;;;1.50;;
19679;SDS011;9989;48.962;9.182;2024-02-15T12:31:51;3.57;;;1.20;;
19679;SDS011;9989;48.962;9.182;2024-02-15T12:34:18;3.57;;;1.33;;
19679;SDS011;9989;48.962;9.182;2024-02-15T12:36:45;4.13;;;1.40;;
19679;SDS011;9989;48.962;9.182;2024-02-15T12:39:14;4.50;;;1.40;;
19679;SDS011;9989;48.962;9.182;2024-02-15T12:41:48;3.30;;;1.20;;
19679;SDS011;9989;48.962;9.182;2024-02-15T12:44:16;3.13;;;1.30;;
19679;SDS011;9989;48.962;9.182;2024-02-15T12:46:43;4.33;;;1.50;;
19679;SDS011;9989;48.962;9.182;2024-02-15T12:49:12;2.70;;;1.10;;
19679;SDS011;9989;48.962;9.182;2024-02-15T12:51:49;5.33;;;1.57;;
19679;SDS011;9989;48.962;9.182;2024-02-15T12:54:21;5.03;;;1.80;;
19679;SDS011;9989;48.962;9.182;2024-02-15T12:56:48;5.03;;;1.57;;
19679;SDS011;9989;48.962;9.182;2024-02-15T12:59:14;3.53;;;1.40;;
19679;SDS011;9989;48.962;9.182;2024-02-15T13:01:40;4.83;;;1.37;;
19679;SDS011;9989;48.962;9.182;2024-02-15T13:04:05;3.63;;;1.37;;
19679;SDS011;9989;48.962;9.182;2024-02-15T13:06:33;7.77;;;1.50;;
19679;SDS011;9989;48.962;9.182;2024-02-15T13:09:00;5.30;;;1.73;;
19679;SDS011;9989;48.962;9.182;2024-02-15T13:11:27;4.83;;;1.30;;
19679;SDS011;9989;48.962;9.182;2024-02-15T13:13:53;3.43;;;1.20;;
19679;SDS011;9989;48.962;9.182;2024-02-15T13:16:20;4.77;;;1.40;;
19679;SDS011;9989;48.962;9.182;2024-02-15T13:18:48;5.67;;;1.40;;
19679;SDS011;9989;48.962;9.182;2024-02-15T13:21:14;3.97;;;1.47;;
19679;SDS011;9989;48.962;9.182;2024-02-15T13:23:39;4.57;;;1.40;;
19679;SDS011;9989;48.962;9.182;2024-02-15T13:26:05;3.70;;;1.43;;
19679;SDS011;9989;48.962;9.182;2024-02-15T13:28:33;3.80;;;1.50;;
19679;SDS011;9989;48.962;9.182;2024-02-15T13:30:58;3.83;;;1.50;;
19679;SDS011;9989;48.962;9.182;2024-02-15T13:33:24;4.77;;;1.57;;
19679;SDS011;9989;48.962;9.182;2024-02-15T13:35:51;4.90;;;1.60;;
19679;SDS011;9989;48.962;9.182;2024-02-15T13:38:17;4.27;;;1.70;;
19679;SDS011;9989;48.962;9.182;2024-02-15T13:40:47;5.33;;;1.70;;
19679;SDS011;9989;48.962;9.182;2024-02-15T13:43:17;5.03;;;1.70;;
19679;SDS011;9989;48.962;9.182;2024-02-15T13:45:43;4.77;;;1.33;;
19679;SDS011;9989;48.962;9.182;2024-02-15T13:48:10;4.23;;;1.67;;
19679;SDS011;9989;48.962;9.182;2024-02-15T13:50:39;6.37;;;1.93;;
19679;SDS011;9989;48.962;9.182;2024-02-15T13:53:05;5.83;;;1.90;;
19679;SDS011;9989;48.962;9.182;2024-02-15T13:55:31;5.77;;;2.03;;
19679;SDS011;9989;48.962;9.182;2024-02-15T13:57:57;7.33;;;2.20;;
19679;SDS011;9989;48.962;9.182;2024-02-15T14:00:23;6.00;;;1.77;;
19679;SDS011;9989;48.962;9.182;2024-02-15T14:02:59;6.53;;;1.97;;
19679;SDS011;9989;48.962;9.182;2024-02-15T14:05:28;6.10;;;1.80;;
19679;SDS011;9989;48.962;9.182;2024-02-15T14:07:56;5.03;;;1.63;;
19679;SDS011;9989;48.962;9.182;2024-02-15T14:10:23;4.03;;;1.33;;
19679;SDS011;9989;48.962;9.182;2024-02-15T14:12:50;3.37;;;1.30;;
19679;SDS011;9989;48.962;9.182;2024-02-15T14:15:33;7.10;;;1.87;;
19679;SDS011;9989;48.962;9.182;2024-02-15T14:18:03;3.77;;;1.43;;
19679;SDS011;9989;48.962;9.182;2024-02-15T14:20:35;4.83;;;1.77;;
19679;SDS011;9989;48.962;9.182;2024-02-15T14:23:02;5.00;;;1.70;;
19679;SDS011;9989;48.962;9.182;2024-02-15T14:25:31;5.33;;;1.60;;
19679;SDS011;9989;48.962;9.182;2024-02-15T14:27:57;4.67;;;1.60;;
19679;SDS011;9989;48.962;9.182;2024-02-15T14:30:24;3.73;;;1.80;;
19679;SDS011;9989;48.962;9.182;2024-02-15T14:33:08;2.53;;;1.30;;
19679;SDS011;9989;48.962;9.182;2024-02-15T14:35:37;6.50;;;1.57;;
19679;SDS011;9989;48.962;9.182;2024-02-15T14:38:05;3.97;;;1.50;;
19679;SDS011;9989;48.962;9.182;2024-02-15T14:40:37;4.57;;;1.47;;
19679;SDS011;9989;48.962;9.182;2024-02-15T14:43:04;5.40;;;1.50;;
19679;SDS011;9989;48.962;9.182;2024-02-15T14:45:34;5.20;;;1.63;;
19679;SDS011;9989;48.962;9.182;2024-02-15T14:48:01;4.03;;;1.63;;
19679;SDS011;9989;48.962;9.182;2024-02-15T14:50:28;4.50;;;1.50;;
19679;SDS011;9989;48.962;9.182;2024-02-15T14:52:54;4.57;;;1.43;;
19679;SDS011;9989;48.962;9.182;2024-02-15T14:55:19;4.87;;;1.67;;
19679;SDS011;9989;48.962;9.182;2024-02-15T14:57:45;4.03;;;1.50;;
19679;SDS011;9989;48.962;9.182;2024-02-15T15:00:12;3.40;;;1.27;;
19679;SDS011;9989;48.962;9.182;2024-02-15T15:02:39;4.33;;;1.60;;
19679;SDS011;9989;48.962;9.182;2024-02-15T15:05:06;4.07;;;1.23;;
19679;SDS011;9989;48.962;9.182;2024-02-15T15:07:52;4.90;;;1.47;;
19679;SDS011;9989;48.962;9.182;2024-02-15T15:10:36;2.83;;;1.60;;
19679;SDS011;9989;48.962;9.182;2024-02-15T15:13:20;4.57;;;1.60;;
19679;SDS011;9989;48.962;9.182;2024-02-15T15:15:46;6.63;;;1.30;;